Terminal Aerodrome Forecast
Issued by NWS

Home | Current Version | Previous Version | Text Only | Print | Product List | Glossary On
Versions: 1 2 3 4 5 6 7 8 9 10 11 12 13 14 15 16 17 18 19 20 21 22 23 24 25 26
600
FTUS41 KBTV 191258 AAA
TAFSLK
TAF AMD
KSLK 191258Z 1913/2012 VRB03KT P6SM VCSH BKN014 OVC030
      TEMPO 1913/1915 5SM -SHSN
     FM191500 29006KT P6SM VCSH SCT010 BKN026
     FM192000 31007KT 3SM -SHSN BKN012 OVC025
     FM200800 30009KT P6SM VCSH OVC015=

USA.gov is the U.S. government's official web portal to all federal, state and local government web resources and services.